Tiempo atmosférico en la estación meteorológica de Sariñena, Depósito Agua, Huesca (302 m.)



Fecha
DESCASC
Temp. máxima en grados centígrados (hora)
DESCASC
Temp. mínima en grados centígrados (hora)
DESCASC
Temp. media en grados centígrados
DESCASC
Racha de viento máxima en m/sg (hora)
DESCASC
Velocidad máxima media en intervalos de 10 minutos(hora)
DESCASC
Precipitaciones diarias en mm
DESCASC
Precipitaciones de 00:00 a 06:00 en mm
DESCASC
Precipitaciones de 06:00 a 12:00 en mm
DESCASC
Precipitaciones de 12:00 a 18:00 en mm
DESCASC
Precipitaciones de 18:00 a 24:00 en mm
DESCASC
22-04-2019 17 (16:30) 9 (07:40) 13 5.28 (16:40) 3.06 (16:00) 2.6 0 1 0 1.6
21-04-2019 16.1 (16:20) 8.8 (07:20) 12.5 6.11 (03:40) 3.89 (03:40) 3.2 3.2 0 0 0
20-04-2019 21.8 (14:50) 7.1 (06:20) 14.4 13.06 (15:00) 7.5 (15:00) 0 0 0 0 0
19-04-2019 20.4 (18:00) 12.2 (07:50) 16.3 15.28 (12:10) 9.17 (04:00) 0 0 0 0 0
18-04-2019 18.2 (16:50) 8.6 (00:00) 13.4 17.22 (20:10) 9.72 (20:00) 0.2 0 0.2 0 0
17-04-2019 20.7 (15:50) 7 (00:00) 13.9 12.22 (16:10) 6.94 (14:30) 0 0 0 0 0
16-04-2019 21.6 (16:40) 7.9 (00:00) 14.8 8.06 (23:59) 5 (23:59) 0.2 0.2 0 0 0
15-04-2019 19.7 (16:20) 9.7 (00:00) 14.7 13.33 (20:50) 8.06 (17:50) 1 0 0 0 1
14-04-2019 24.2 (18:10) 8.2 (00:00) 16.2 15.83 (18:20) 8.61 (18:00) 0 0 0 0 0
13-04-2019 23.1 (18:20) 2.9 (00:00) 13 6.94 (16:20) 4.17 (18:10) 0 0 0 0 0
12-04-2019 20.5 (16:40) 4.8 (00:00) 12.7 10 (18:00) 5.28 (00:10) 0 0 0 0 0
11-04-2019 19 (15:30) 5.8 (00:00) 12.4 15.83 (16:40) 9.72 (16:40) 0 0 0 0 0
10-04-2019 18.6 (16:10) 5.2 (00:00) 11.9 10.83 (18:20) 6.67 (17:40) 0 0 0 0 0
09-04-2019 17.9 (16:50) 7.7 (00:00) 12.8 11.39 (13:40) 6.39 (10:30) 1.4 1.4 0 0 0
08-04-2019 18.3 (16:30) 5.4 (00:00) 11.8 11.11 (19:10) 6.11 (19:10) 2.4 0.2 0.6 0 1.6
07-04-2019 16 (16:20) 5.2 (00:00) 10.6 13.61 (12:50) 7.78 (12:30) 0 0 0 0 0
06-04-2019 14.9 (17:00) 5.5 (00:00) 10.2 10.56 (00:50) 6.39 (01:40) 3 2.8 0 0 0.2
05-04-2019 14.7 (16:00) 6.3 (00:00) 10.5 8.06 (04:00) 4.17 (04:00) 4.4 0 1 1.2 2.2
04-04-2019 14.6 (18:30) 2.1 (00:00) 8.4 11.39 (11:40) 6.39 (11:20) 0 0 0 0 0
03-04-2019 14 (12:00) 5.5 (00:00) 9.8 15 (19:30) 8.61 (19:40) 0 0 0 0 0
02-04-2019 20.2 (16:40) 8.2 (00:00) 14.2 10 (17:20) 5.56 (15:40) 0.2 0.2 0 0 0
01-04-2019 15.9 (17:20) 8.2 (00:00) 12 3.89 (03:40) 2.22 (00:40) 2 0.6 1.4 0 0
31-03-2019 13.6 (15:20) 3.1 (00:00) 8.4 5 (14:00) 2.78 (14:00) 0 0 0 0 0
30-03-2019 18.8 (15:10) 2.5 (00:00) 10.6 6.67 (14:50) 3.61 (15:50) 0 0 0 0 0
29-03-2019 19.1 (15:50) 2.9 (00:00) 11 8.61 (17:50) 5.28 (17:40) 0 0 0 0 0
28-03-2019 19.1 (17:30) 2.3 (00:00) 10.7 7.22 (23:30) 3.61 (23:59) 0 0 0 0 0
27-03-2019 21.2 (18:20) 1.7 (00:00) 11.5 6.39 (00:10) 3.33 (00:10) 0 0 0 0 0
26-03-2019 21 (17:40) 3.1 (00:00) 12 7.5 (13:00) 4.17 (22:40) 0 0 0 0 0
25-03-2019 20.2 (16:20) 4.6 (00:00) 12.4 10.28 (15:30) 6.11 (13:40) 0 0 0 0 0

Gráficas

Temp. máximas Temp. mínimas Temp. medias Precipitaciones Rachas de viento máximas Velocidades máximas media en intervalos de 10 minutos

Datos horarios

Fecha y hora oficial Temperatura (ºC) Velocidad del viento (km/h) Dirección del viento Racha (km/h) Dirección de racha Precipitación (mm) Presión (hPa) Tendencia (hPa) Humedad (%)
2019-04-23 23:00:00 10.8 2 Este 12 Sudeste 0.2 -- -- 86
2019-04-23 22:00:00 11.4 5 Sudoeste 15 Sudoeste 0.4 -- -- 92
2019-04-23 21:00:00 11.8 8 Sudoeste 14 Sudoeste 0 -- -- 91
2019-04-23 20:00:00 11.9 4 Norte 15 Nordeste 0.4 -- -- 88
2019-04-23 19:00:00 12.3 8 Nordeste 20 Norte 0.2 -- -- 84
2019-04-23 18:00:00 13.4 9 Noroeste 28 Oeste 0.6 -- -- 80
2019-04-23 17:00:00 15.1 12 Norte 24 Oeste 0.2 -- -- 78
2019-04-23 16:00:00 15.9 13 Sudoeste 27 Sudoeste 0.6 -- -- 75
2019-04-23 15:00:00 19.2 15 Este 30 Este 0 -- -- 61
2019-04-23 14:00:00 18.1 15 Este 26 Este 0 -- -- 67
2019-04-23 13:00:00 17.6 14 Este 24 Nordeste 0 -- -- 72
2019-04-23 12:00:00 16.4 13 Este 18 Sudeste 0 -- -- 76
2019-04-23 11:00:00 14.5 9 Este 15 Este 0 -- -- 85
2019-04-23 10:00:00 12.8 2 Sudeste 6 Este 0 -- -- 93
2019-04-23 09:00:00 11.4 0 Calma -- -- 0 -- -- 96
2019-04-23 08:00:00 10.8 0 Calma 4 Este 0 -- -- 95
2019-04-23 07:00:00 10.8 0 Calma 7 Sudoeste 0 -- -- 95
2019-04-23 06:00:00 11 0 Calma 7 Nordeste 0 -- -- 94
2019-04-23 05:00:00 11.2 0 Calma 4 Nordeste 0 -- -- 94
2019-04-23 04:00:00 11.3 0 Calma 7 Sudoeste 0 -- -- 93
2019-04-23 03:00:00 11.4 2 Norte 5 Nordeste 0 -- -- 92
2019-04-23 02:00:00 11.8 2 Sudeste 4 Sudeste 0.2 -- -- 90
2019-04-23 01:00:00 11.8 3 Nordeste 4 Nordeste 0 -- -- 91
2019-04-23 00:00:00 12.2 2 Nordeste 5 Oeste 0.2 -- -- 88
2019-04-22 23:00:00 12.6 4 Noroeste 8 Oeste 0 -- -- 85
2019-04-22 22:00:00 13 3 Sur 8 Sur 0.4 -- -- 86
2019-04-22 21:00:00 13.9 4 Sur 12 Sudeste 0.8 -- -- 81
2019-04-22 20:00:00 15.1 3 Este 6 Este 0.2 -- -- 73
2019-04-22 19:00:00 16.6 2 Sudeste 10 Sudoeste 0 -- -- 61
2019-04-22 18:00:00 16.8 6 Sudoeste 15 Sudoeste 0 -- -- 55
2019-04-22 17:00:00 16.9 9 Oeste 19 Oeste 0 -- -- 56
2019-04-22 16:00:00 16.6 11 Oeste 18 Oeste 0 -- -- 61
2019-04-22 15:00:00 15.8 7 Oeste 16 Oeste 0 -- -- 70
2019-04-22 14:00:00 15.2 7 Oeste 15 Oeste 0 -- -- 72
2019-04-22 13:00:00 14.1 9 Noroeste 16 Oeste 0 -- -- 77
2019-04-22 12:00:00 12.6 5 Norte 15 Norte 0 -- -- 88
2019-04-22 11:00:00 10.8 7 Norte 12 Noroeste 0 -- -- 93
2019-04-22 10:00:00 10 5 Noroeste 14 Oeste 0.6 -- -- 94
2019-04-22 09:00:00 9.7 2 Noroeste 9 Sudeste 0.4 -- -- 93
2019-04-22 08:00:00 9.1 6 Sudeste 9 Sudeste 0 -- -- 91
2019-04-22 07:00:00 9.1 4 Noroeste 12 Noroeste 0 -- -- 90
2019-04-22 06:00:00 9.3 4 Noroeste 10 Noroeste 0 -- -- 92
2019-04-22 05:00:00 9.4 6 Noroeste 10 Noroeste 0 -- -- 93
2019-04-22 04:00:00 10.2 3 Noroeste 10 Oeste 0 -- -- 91
2019-04-22 03:00:00 11.1 5 Noroeste 10 Oeste 0 -- -- 89
2019-04-22 02:00:00 11.8 5 Noroeste 11 Noroeste 0 -- -- 84
2019-04-22 01:00:00 11.7 5 Oeste 8 Oeste 0 -- -- 86
2019-04-22 00:00:00 12.3 3 Noroeste 8 Noroeste 0 -- -- 83
2019-04-21 23:00:00 12.8 6 Oeste 10 Oeste 0 -- -- 78
2019-04-21 22:00:00 13.1 6 Oeste 17 Noroeste 0 -- -- 78
2019-04-21 21:00:00 13.7 8 Noroeste 16 Noroeste 0 -- -- 75
2019-04-21 20:00:00 13.8 8 Noroeste 15 Noroeste 0 -- -- 74
2019-04-21 19:00:00 14.3 8 Noroeste 14 Noroeste 0 -- -- 74
2019-04-21 18:00:00 15.4 3 Noroeste 10 Norte 0 -- -- 63
2019-04-21 17:00:00 15.8 6 Norte 12 Nordeste 0 -- -- 61
2019-04-21 16:00:00 16 6 Este 15 Este 0 -- -- 57
2019-04-21 15:00:00 15 4 Nordeste 12 Este 0 -- -- 64
2019-04-21 14:00:00 15.3 5 Este 12 Este 0 -- -- 61
2019-04-21 13:00:00 14.7 3 Oeste 13 Sudoeste 0 -- -- 70
2019-04-21 12:00:00 12.3 8 Oeste 14 Sudoeste 0 -- -- 89
2019-04-21 11:00:00 11.3 4 Noroeste 10 Noroeste 0 -- -- 93
2019-04-21 10:00:00 10.1 6 Oeste 9 Oeste 0 -- -- 94
2019-04-21 09:00:00 9.4 3 Oeste 7 Oeste 0 -- -- 95
2019-04-21 08:00:00 9 2 Oeste 8 Sudoeste 0 -- -- 96
2019-04-21 07:00:00 9 4 Oeste 9 Oeste 0 -- -- 95
2019-04-21 06:00:00 9.2 9 Oeste 15 Noroeste 0 -- -- 94
2019-04-21 05:00:00 9.4 7 Noroeste 16 Noroeste 0 -- -- 94
2019-04-21 04:00:00 9.3 11 Noroeste 22 Noroeste 0.2 -- -- 94
2019-04-21 03:00:00 9.5 7 Noroeste 13 Noroeste 0.8 -- -- 93
2019-04-21 02:00:00 9.2 0 Calma 14 Sudeste 1.2 -- -- 92
2019-04-21 01:00:00 9.5 11 Este 22 Sudeste 1 -- -- 89
2019-04-21 00:00:00 10.3 8 Sudeste 34 Sudeste 0 -- -- 86
2019-04-20 23:00:00 12.2 14 Sudeste 24 Sudeste 0 -- -- 69
2019-04-20 22:00:00 13.2 9 Sudeste 21 Sur 0 -- -- 65
2019-04-20 21:00:00 14.1 15 Sur 31 Sur 0 -- -- 64
2019-04-20 20:00:00 16.5 15 Sudeste 32 Sudeste 0 -- -- 47
2019-04-20 19:00:00 17.8 20 Sudeste 42 Sudeste 0 -- -- 43
2019-04-20 18:00:00 18.6 18 Este 39 Este 0 -- -- 43
2019-04-20 17:00:00 19.1 18 Este 34 Este 0 -- -- 41
2019-04-20 16:00:00 19.8 15 Este 46 Este 0 -- -- 39
2019-04-20 15:00:00 21.6 27 Este 47 Este 0 -- -- 33
2019-04-20 14:00:00 20.7 15 Este 27 Este 0 -- -- 38
2019-04-20 13:00:00 19.7 15 Sudeste 24 Sudeste 0 -- -- 39
2019-04-20 12:00:00 19.2 14 Sudeste 22 Sudeste 0 -- -- 39
2019-04-20 11:00:00 17.7 4 Este 9 Nordeste 0 -- -- 43
2019-04-20 10:00:00 13.6 5 Noroeste 13 Norte 0 -- -- 57
2019-04-20 09:00:00 10.1 5 Noroeste 10 Noroeste 0 -- -- 69
2019-04-20 08:00:00 8 4 Noroeste 10 Oeste 0 -- -- 75
2019-04-20 07:00:00 7.4 6 Noroeste 10 Oeste 0 -- -- 77
2019-04-20 06:00:00 7.5 3 Noroeste 7 Norte 0 -- -- 74
2019-04-20 05:00:00 8.4 3 Norte 9 Norte 0 -- -- 70
2019-04-20 04:00:00 9.2 0 Calma 10 Norte 0 -- -- 68
2019-04-20 03:00:00 10.5 3 Norte 7 Norte 0 -- -- 62
2019-04-20 02:00:00 12.2 7 Norte 10 Norte 0 -- -- 54
2019-04-20 01:00:00 13.6 0 Calma 17 Sudeste 0 -- -- 51
2019-04-20 00:00:00 14.9 11 Sudeste 22 Este 0 -- -- 47
2019-04-19 23:00:00 14.9 8 Este 16 Este 0 -- -- 44
2019-04-19 22:00:00 16.4 6 Este 24 Nordeste 0 -- -- 39
2019-04-19 21:00:00 17.5 11 Nordeste 29 Este 0 -- -- 38
2019-04-19 20:00:00 18.9 17 Este 33 Este 0 -- -- 39
2019-04-19 19:00:00 20 15 Este 30 Este 0 -- -- 41
2019-04-19 18:00:00 20.4 17 Este 38 Este 0 -- -- 40
2019-04-19 17:00:00 20.3 14 Este 42 Este 0 -- -- 40
2019-04-19 16:00:00 20.2 24 Este 50 Este 0 -- -- 41
2019-04-19 15:00:00 20 27 Este 50 Este 0 -- -- 45
2019-04-19 14:00:00 18.8 26 Este 45 Este 0 -- -- 48
2019-04-19 13:00:00 18.4 27 Este 55 Este 0 -- -- 49
2019-04-19 12:00:00 17.7 28 Este 50 Nordeste 0 -- -- 48
2019-04-19 11:00:00 16.5 25 Este 42 Este 0 -- -- 53
2019-04-19 10:00:00 15.4 18 Este 31 Este 0 -- -- 55
2019-04-19 09:00:00 13.6 12 Sudeste 25 Sudeste 0 -- -- 59
2019-04-19 08:00:00 12.3 11 Este 23 Este 0 -- -- 62
2019-04-19 07:00:00 13.1 17 Este 38 Este 0 -- -- 58
2019-04-19 06:00:00 13.6 19 Este 49 Este 0 -- -- 56
2019-04-19 05:00:00 14 26 Este 49 Este 0 -- -- 53
2019-04-19 04:00:00 14.5 33 Este 52 Este 0 -- -- 51
2019-04-19 03:00:00 14.5 23 Este 53 Este 0 -- -- 51
2019-04-19 02:00:00 14.7 30 Este 50 Este 0 -- -- 50
2019-04-19 01:00:00 14.6 26 Este 49 Este 0 -- -- 51
2019-04-19 00:00:00 15 26 Este 53 Sudeste 0 -- -- 51
2019-04-18 23:00:00 15.3 20 Este 49 Este 0 -- -- 50
2019-04-18 22:00:00 15.8 24 Este 49 Este 0 -- -- 54
2019-04-18 21:00:00 16.5 28 Este 62 Sudeste 0 -- -- 51
2019-04-18 20:00:00 17 35 Este 61 Este 0 -- -- 50
2019-04-18 19:00:00 17.7 31 Este 54 Este 0 -- -- 49
2019-04-18 18:00:00 17.9 23 Este 45 Este 0 -- -- 48
2019-04-18 17:00:00 18.1 27 Este 46 Este 0 -- -- 48
2019-04-18 16:00:00 17.9 29 Este 52 Este 0 -- -- 49
2019-04-18 15:00:00 16.3 23 Este 42 Este 0 -- -- 57
2019-04-18 14:00:00 15.9 18 Este 39 Este 0 -- -- 61
2019-04-18 13:00:00 15.4 23 Este 37 Este 0 -- -- 63
2019-04-18 12:00:00 13.3 19 Este 35 Nordeste 0.2 -- -- 66
2019-04-18 11:00:00 11.9 16 Nordeste 29 Nordeste 0 -- -- 84
2019-04-18 10:00:00 11.2 4 Este 10 Sudeste 0 -- -- 84
2019-04-18 09:00:00 10.2 5 Sudeste 10 Este 0 -- -- 88
2019-04-18 08:00:00 8.6 3 Este 7 Este 0 -- -- 90
2019-04-18 07:00:00 9.6 5 Sudeste 19 Este 0 -- -- 87
2019-04-18 06:00:00 10.1 10 Nordeste 26 Este 0 -- -- 86
2019-04-18 05:00:00 10.5 12 Este 24 Este 0 -- -- 83
2019-04-18 04:00:00 10.5 11 Este 20 Sudeste 0 -- -- 80
2019-04-18 03:00:00 11.3 12 Este 29 Este 0 -- -- 77
2019-04-18 02:00:00 12 18 Este 30 Este 0 -- -- 74
2019-04-18 01:00:00 12.1 15 Este 26 Este 0 -- -- 74
2019-04-18 00:00:00 12.6 14 Este 30 Este 0 -- -- 69
2019-04-17 23:00:00 12.7 12 Este 33 Este 0 -- -- 68
2019-04-17 22:00:00 13.4 17 Sudeste 34 Sudeste 0 -- -- 66
2019-04-17 21:00:00 14.5 14 Este 32 Sudeste 0 -- -- 67
2019-04-17 20:00:00 15.7 18 Sudeste 36 Sudeste 0 -- -- 64
2019-04-17 19:00:00 17.5 20 Sudeste 36 Este 0 -- -- 58
2019-04-17 18:00:00 18.9 22 Este 35 Este 0 -- -- 54
2019-04-17 17:00:00 19.6 19 Este 44 Este 0 -- -- 53
2019-04-17 16:00:00 20.6 23 Este 38 Este 0 -- -- 52
2019-04-17 15:00:00 20 23 Este 39 Este 0 -- -- 52
2019-04-17 14:00:00 18.5 22 Este 40 Este 0 -- -- 57
2019-04-17 13:00:00 16.7 18 Este 34 Este 0 -- -- 59
2019-04-17 12:00:00 15.2 21 Este 31 Este 0 -- -- 65
2019-04-17 11:00:00 14.3 18 Este 30 Este 0 -- -- 71
2019-04-17 10:00:00 12.9 14 Este 30 Este 0 -- -- 74
2019-04-17 09:00:00 10.6 6 Este 10 Este 0 -- -- 81
2019-04-17 08:00:00 7.4 3 Este 6 Este 0 -- -- 90
2019-04-17 07:00:00 7.4 3 Sudoeste 10 Este 0 -- -- 88
2019-04-17 06:00:00 9 7 Nordeste 16 Este 0 -- -- 85
2019-04-17 05:00:00 9.1 8 Nordeste 22 Este 0 -- -- 83
2019-04-17 04:00:00 10 10 Este 21 Este 0 -- -- 78
2019-04-17 03:00:00 10.4 9 Este 24 Este 0 -- -- 79
2019-04-17 02:00:00 10.7 14 Este 25 Este 0 -- -- 76
2019-04-17 01:00:00 11.2 14 Este 26 Este 0 -- -- 65
2019-04-17 00:00:00 12 18 Este 29 Este 0 -- -- 59
2019-04-16 23:00:00 12.4 12 Este 23 Este 0 -- -- 56
2019-04-16 22:00:00 13.6 8 Este 25 Este 0 -- -- 59
2019-04-16 21:00:00 15.8 14 Este 27 Este 0 -- -- 59
2019-04-16 20:00:00 18.5 10 Este 23 Sudeste 0 -- -- 52
2019-04-16 19:00:00 20.4 14 Este 22 Sudeste 0 -- -- 46
2019-04-16 18:00:00 20.8 12 Este 23 Este 0 -- -- 46
2019-04-16 17:00:00 20.7 6 Este 15 Este 0 -- -- 43
2019-04-16 16:00:00 20.8 3 Oeste 15 Oeste 0 -- -- 44
2019-04-16 15:00:00 19.7 7 Norte 15 Noroeste 0 -- -- 45
2019-04-16 14:00:00 18.7 5 Noroeste 18 Oeste 0 -- -- 53
2019-04-16 13:00:00 17.3 4 Nordeste 14 Oeste 0 -- -- 58
2019-04-16 12:00:00 15.4 4 Noroeste 12 Sudoeste 0 -- -- 66
2019-04-16 11:00:00 13.8 4 Noroeste 12 Norte 0 -- -- 72
2019-04-16 10:00:00 12.3 2 Oeste 5 Nordeste 0 -- -- 72
2019-04-16 09:00:00 11 0 Calma 6 Nordeste 0 -- -- 78
2019-04-16 08:00:00 8.3 2 Norte 6 Norte 0 -- -- 89
2019-04-16 07:00:00 8.5 2 Noroeste 4 Noroeste 0 -- -- 88
2019-04-16 06:00:00 8.6 0 Calma 8 Oeste 0 -- -- 87
2019-04-16 05:00:00 8.6 3 Este 9 Oeste 0 -- -- 84
2019-04-16 04:00:00 8.3 5 Oeste 12 Noroeste 0 -- -- 82
2019-04-16 03:00:00 8.7 6 Noroeste 10 Noroeste 0 -- -- 79
2019-04-16 02:00:00 9.1 0 Calma 17 Este 0.2 -- -- 74
2019-04-16 01:00:00 9.6 9 Este 18 Este 0 -- -- 72
2019-04-16 00:00:00 10.7 8 Nordeste 24 Nordeste 0 -- -- 73
2019-04-15 23:00:00 12 8 Este 42 Este 0 -- -- 66
2019-04-15 22:00:00 12.6 24 Este 40 Este 0 -- -- 63
2019-04-15 21:00:00 12.9 18 Este 48 Este 1 -- -- 66
2019-04-15 20:00:00 15 12 Sudeste 44 Este 0 -- -- 57
2019-04-15 19:00:00 17.1 24 Este 45 Este 0 -- -- 53
2019-04-15 18:00:00 17.2 27 Sudeste 46 Sudeste 0 -- -- 55
2019-04-15 17:00:00 18.6 27 Este 47 Este 0 -- -- 52
2019-04-15 16:00:00 19 23 Este 41 Sudeste 0 -- -- 53
2019-04-15 15:00:00 19 22 Este 40 Este 0 -- -- 55
2019-04-15 14:00:00 18.9 26 Este 39 Este 0 -- -- 52
2019-04-15 13:00:00 18.5 20 Este 34 Este 0 -- -- 51
2019-04-15 12:00:00 16.8 18 Sudeste 32 Este 0 -- -- 54
2019-04-15 11:00:00 15.2 17 Este 31 Este 0 -- -- 58
2019-04-15 10:00:00 14.4 17 Este 31 Este 0 -- -- 62
2019-04-15 09:00:00 12.2 11 Este 24 Este 0 -- -- 79
2019-04-15 08:00:00 9.8 7 Sudeste 14 Este 0 -- -- 89
2019-04-15 07:00:00 10.2 8 Sudeste 18 Este 0 -- -- 88
2019-04-15 06:00:00 10.8 11 Este 27 Este 0 -- -- 84
2019-04-15 05:00:00 11.6 10 Este 26 Este 0 -- -- 82
2019-04-15 04:00:00 11.7 3 Este 12 Este 0 -- -- 82
2019-04-15 03:00:00 12.4 0 Calma 8 Este 0 -- -- 79
2019-04-15 02:00:00 13.8 4 Noroeste 19 Oeste 0 -- -- 75
2019-04-15 01:00:00 15.1 13 Oeste 24 Oeste 0 -- -- 70
2019-04-15 00:00:00 15.7 17 Oeste 24 Oeste 0 -- -- 68
2019-04-14 23:00:00 16.9 6 Oeste 24 Oeste 0 -- -- 62
2019-04-14 22:00:00 17.4 4 Noroeste 20 Oeste 0 -- -- 60
2019-04-14 21:00:00 19 13 Noroeste 27 Oeste 0 -- -- 57
2019-04-14 20:00:00 21.7 18 Oeste 42 Oeste 0 -- -- 48
2019-04-14 19:00:00 23.5 26 Oeste 57 Oeste 0 -- -- 43
2019-04-14 18:00:00 24.1 31 Oeste 50 Oeste 0 -- -- 40
2019-04-14 17:00:00 23.8 30 Oeste 51 Oeste 0 -- -- 39
2019-04-14 16:00:00 23.7 30 Oeste 50 Oeste 0 -- -- 39
2019-04-14 15:00:00 23.5 24 Oeste 45 Oeste 0 -- -- 39
2019-04-14 14:00:00 22.7 24 Oeste 46 Oeste 0 -- -- 40
2019-04-14 13:00:00 21.4 27 Oeste 44 Oeste 0 -- -- 40
2019-04-14 12:00:00 20.3 23 Oeste 41 Oeste 0 -- -- 39
2019-04-14 11:00:00 19.1 22 Oeste 40 Oeste 0 -- -- 36
2019-04-14 10:00:00 16.1 10 Oeste 19 Oeste 0 -- -- 45
2019-04-14 09:00:00 11.4 4 Noroeste 9 Noroeste 0 -- -- 54
2019-04-14 08:00:00 9.8 3 Noroeste 12 Noroeste 0 -- -- 53
2019-04-14 07:00:00 9 9 Noroeste 14 Oeste 0 -- -- 52
2019-04-14 06:00:00 8.8 6 Oeste 15 Oeste 0 -- -- 49
2019-04-14 05:00:00 9.1 6 Noroeste 16 Noroeste 0 -- -- 45
2019-04-14 04:00:00 9 12 Noroeste 17 Noroeste 0 -- -- 47
2019-04-14 03:00:00 8.9 9 Noroeste 15 Noroeste 0 -- -- 47
2019-04-14 02:00:00 8.7 5 Oeste 6 Oeste 0 -- -- 48
2019-04-14 01:00:00 8.5 0 Calma 6 Noroeste 0 -- -- 51
2019-04-14 00:00:00 10.2 4 Noroeste 10 Oeste 0 -- -- 46
2019-04-13 23:00:00 12.2 2 Sudeste 15 Noroeste 0 -- -- 37
2019-04-13 22:00:00 14.8 11 Oeste 18 Oeste 0 -- -- 24
2019-04-13 21:00:00 17.1 8 Oeste 16 Oeste 0 -- -- 27
2019-04-13 20:00:00 21.4 8 Oeste 24 Oeste 0 -- -- 25
2019-04-13 19:00:00 23.1 11 Oeste 25 Oeste 0 -- -- 17
2019-04-13 18:00:00 22.7 13 Sudoeste 25 Oeste 0 -- -- 20
2019-04-13 17:00:00 22.1 12 Oeste 25 Oeste 0 -- -- 21
2019-04-13 16:00:00 21.9 14 Oeste 25 Oeste 0 -- -- 23
2019-04-13 15:00:00 20.7 7 Oeste 18 Oeste 0 -- -- 31
2019-04-13 14:00:00 18.8 6 Oeste 15 Oeste 0 -- -- 36
2019-04-13 13:00:00 16.7 5 Oeste 14 Oeste 0 -- -- 40
2019-04-13 12:00:00 13.8 4 Noroeste 15 Oeste 0 -- -- 51
2019-04-13 11:00:00 10.9 6 Oeste 13 Oeste 0 -- -- 59
2019-04-13 10:00:00 7.5 7 Noroeste 12 Oeste 0 -- -- 72
2019-04-13 09:00:00 4.4 3 Noroeste 7 Norte 0 -- -- 78
2019-04-13 08:00:00 3.1 4 Noroeste 8 Noroeste 0 -- -- 87
2019-04-13 07:00:00 3.1 4 Noroeste 6 Oeste 0 -- -- 84
2019-04-13 06:00:00 3.6 0 Calma 5 Noroeste 0 -- -- 82
2019-04-13 05:00:00 4.3 4 Noroeste 7 Norte 0 -- -- 81
2019-04-13 04:00:00 5.4 4 Norte 15 Noroeste 0 -- -- 77
2019-04-13 03:00:00 7.4 6 Noroeste 18 Noroeste 0 -- -- 74
2019-04-13 02:00:00 8 9 Norte 24 Noroeste 0 -- -- 70
2019-04-13 01:00:00 9 11 Noroeste 22 Noroeste 0 -- -- 66
2019-04-13 00:00:00 9.7 7 Noroeste 17 Oeste 0 -- -- 65
2019-04-12 23:00:00 11 5 Noroeste 17 Oeste 0 -- -- 60
2019-04-12 22:00:00 13 9 Oeste 20 Oeste 0 -- -- 50
2019-04-12 21:00:00 15.1 9 Oeste 23 Oeste 0 -- -- 42
2019-04-12 20:00:00 18.3 13 Oeste 28 Oeste 0 -- -- 34
2019-04-12 19:00:00 20 14 Oeste 28 Oeste 0 -- -- 29
2019-04-12 18:00:00 20.4 17 Oeste 36 Oeste 0 -- -- 29
2019-04-12 17:00:00 20.2 15 Oeste 33 Sudoeste 0 -- -- 30
2019-04-12 16:00:00 20.1 16 Oeste 32 Sudoeste 0 -- -- 32
2019-04-12 15:00:00 19.6 12 Oeste 26 Oeste 0 -- -- 32
2019-04-12 14:00:00 18.4 14 Oeste 31 Sudoeste 0 -- -- 32
2019-04-12 13:00:00 16.9 12 Oeste 23 Oeste 0 -- -- 40
2019-04-12 12:00:00 15 15 Noroeste 25 Oeste 0 -- -- 48
2019-04-12 11:00:00 13.3 12 Oeste 24 Oeste 0 -- -- 57
2019-04-12 10:00:00 9.9 7 Noroeste 16 Oeste 0 -- -- 75
2019-04-12 09:00:00 7.2 6 Noroeste 12 Noroeste 0 -- -- 86
2019-04-12 08:00:00 4.9 6 Noroeste 9 Noroeste 0 -- -- 91
2019-04-12 07:00:00 5 5 Noroeste 10 Noroeste 0 -- -- 90
2019-04-12 06:00:00 5.1 5 Noroeste 12 Oeste 0 -- -- 89
2019-04-12 05:00:00 5.7 5 Oeste 12 Oeste 0 -- -- 85
2019-04-12 04:00:00 6.2 5 Noroeste 14 Noroeste 0 -- -- 84
2019-04-12 03:00:00 7 8 Noroeste 15 Oeste 0 -- -- 79
2019-04-12 02:00:00 7.7 11 Oeste 28 Oeste 0 -- -- 74
2019-04-12 01:00:00 8.5 15 Oeste 33 Oeste 0 -- -- 70
2019-04-12 00:00:00 9.3 21 Oeste 35 Oeste 0 -- -- 68
2019-04-11 23:00:00 10.3 20 Oeste 33 Oeste 0 -- -- 65
2019-04-11 22:00:00 11.2 18 Oeste 37 Oeste 0 -- -- 59
2019-04-11 21:00:00 12.9 23 Oeste 39 Oeste 0 -- -- 50
2019-04-11 20:00:00 15.5 24 Oeste 44 Oeste 0 -- -- 44
2019-04-11 19:00:00 16.3 30 Oeste 51 Oeste 0 -- -- 42
2019-04-11 18:00:00 18.1 30 Oeste 52 Oeste 0 -- -- 39
2019-04-11 17:00:00 17.6 33 Oeste 57 Oeste 0 -- -- 43
2019-04-11 16:00:00 18.5 28 Oeste 52 Oeste 0 -- -- 41
2019-04-11 15:00:00 18.1 29 Oeste 46 Oeste 0 -- -- 44
2019-04-11 14:00:00 18.1 20 Oeste 38 Sudoeste 0 -- -- 42
2019-04-11 13:00:00 16.8 18 Oeste 38 Noroeste 0 -- -- 44
2019-04-11 12:00:00 15.3 21 Oeste 35 Oeste 0 -- -- 46
2019-04-11 11:00:00 13 19 Oeste 37 Oeste 0 -- -- 55
2019-04-11 10:00:00 10.8 19 Oeste 30 Oeste 0 -- -- 63
2019-04-11 09:00:00 8.5 16 Oeste 28 Oeste 0 -- -- 74
2019-04-11 08:00:00 5.9 4 Noroeste 21 Oeste 0 -- -- 84
2019-04-11 07:00:00 5.9 10 Oeste 21 Oeste 0 -- -- 85
2019-04-11 06:00:00 6.3 12 Oeste 21 Noroeste 0 -- -- 83
2019-04-11 05:00:00 6.8 10 Noroeste 20 Oeste 0 -- -- 82
2019-04-11 04:00:00 7 10 Oeste 19 Noroeste 0 -- -- 81
2019-04-11 03:00:00 7.1 7 Noroeste 18 Oeste 0 -- -- 79
2019-04-11 02:00:00 7.5 9 Noroeste 17 Noroeste 0 -- -- 78
2019-04-11 01:00:00 8 13 Noroeste 25 Oeste 0 -- -- 75
2019-04-11 00:00:00 9.3 15 Oeste 25 Oeste 0 -- -- 67
2019-04-10 23:00:00 10.7 15 Noroeste 31 Oeste 0 -- -- 63
2019-04-10 22:00:00 12.3 14 Oeste 35 Oeste 0 -- -- 56
2019-04-10 21:00:00 14.4 22 Oeste 31 Oeste 0 -- -- 47
2019-04-10 20:00:00 16.5 12 Oeste 35 Oeste 0 -- -- 47
2019-04-10 19:00:00 17.8 17 Oeste 39 Oeste 0 -- -- 42
2019-04-10 18:00:00 17.6 21 Oeste 39 Oeste 0 -- -- 44
2019-04-10 17:00:00 16.2 17 Noroeste 37 Noroeste 0 -- -- 47
2019-04-10 16:00:00 18.5 12 Oeste 23 Oeste 0 -- -- 38
2019-04-10 15:00:00 18.1 11 Oeste 24 Oeste 0 -- -- 43
2019-04-10 14:00:00 16.7 12 Oeste 25 Oeste 0 -- -- 49
2019-04-10 13:00:00 14.9 13 Oeste 26 Oeste 0 -- -- 54
2019-04-10 12:00:00 13 14 Noroeste 25 Oeste 0 -- -- 61
2019-04-10 11:00:00 11.8 10 Noroeste 22 Noroeste 0 -- -- 68
2019-04-10 10:00:00 8.1 6 Oeste 12 Noroeste 0 -- -- 84
2019-04-10 09:00:00 6 2 Noroeste 6 Noroeste 0 -- -- 90
2019-04-10 08:00:00 5.5 3 Noroeste 10 Norte 0 -- -- 91
2019-04-10 07:00:00 5.7 5 Noroeste 17 Noroeste 0 -- -- 90
2019-04-10 06:00:00 6.6 6 Noroeste 17 Oeste 0 -- -- 86
2019-04-10 05:00:00 7.3 11 Oeste 19 Oeste 0 -- -- 85
2019-04-10 04:00:00 7.7 6 Oeste 14 Oeste 0 -- -- 86
2019-04-10 03:00:00 8.2 0 Calma 24 Oeste 0 -- -- 83
2019-04-10 02:00:00 8.7 12 Oeste 23 Oeste 0 -- -- 81
2019-04-10 01:00:00 9.4 10 Noroeste 24 Oeste 0 -- -- 82
2019-04-10 00:00:00 9.7 14 Oeste 28 Oeste 0 -- -- 75
2019-04-09 23:00:00 10.4 10 Oeste 25 Oeste 0 -- -- 72
2019-04-09 22:00:00 11.3 12 Oeste 30 Sudoeste 0 -- -- 68
2019-04-09 21:00:00 12.2 13 Oeste 30 Sur 0 -- -- 64
2019-04-09 20:00:00 15.4 16 Oeste 31 Oeste 0 -- -- 50
2019-04-09 19:00:00 16.6 14 Oeste 29 Sudoeste 0 -- -- 47
2019-04-09 18:00:00 14.2 10 Oeste 36 Sudoeste 0 -- -- 57
2019-04-09 17:00:00 17.6 19 Oeste 37 Oeste 0 -- -- 43
2019-04-09 16:00:00 17 14 Oeste 35 Oeste 0 -- -- 44
2019-04-09 15:00:00 17.4 18 Oeste 36 Oeste 0 -- -- 45
2019-04-09 14:00:00 16.4 20 Oeste 41 Oeste 0 -- -- 45
2019-04-09 13:00:00 15.4 18 Oeste 36 Oeste 0 -- -- 52
2019-04-09 12:00:00 14.1 20 Oeste 34 Oeste 0 -- -- 59
2019-04-09 11:00:00 12.8 21 Oeste 34 Oeste 0 -- -- 68
2019-04-09 10:00:00 11.7 17 Oeste 28 Oeste 0 -- -- 72
2019-04-09 09:00:00 9.3 8 Oeste 21 Oeste 0 -- -- 84
2019-04-09 08:00:00 7.9 6 Oeste 15 Oeste 0 -- -- 85
2019-04-09 07:00:00 8.6 7 Oeste 17 Oeste 0 -- -- 85
2019-04-09 06:00:00 9 6 Oeste 27 Oeste 0.6 -- -- 85
2019-04-09 05:00:00 10.2 11 Oeste 29 Oeste 0.2 -- -- 76
2019-04-09 04:00:00 10.1 11 Oeste 24 Oeste 0.6 -- -- 80
2019-04-09 03:00:00 8.9 6 Oeste 8 Sudoeste 0 -- -- 91
2019-04-09 02:00:00 9.3 2 Noroeste 9 Oeste 0 -- -- 89
2019-04-09 01:00:00 9.4 8 Oeste 13 Oeste 0 -- -- 87
2019-04-09 00:00:00 10.1 2 Noroeste 13 Sudoeste 0 -- -- 88
2019-04-08 23:00:00 10.7 6 Sudoeste 29 Oeste 1 -- -- 87
2019-04-08 22:00:00 11.6 12 Oeste 31 Oeste 0.2 -- -- 83
2019-04-08 21:00:00 11.1 5 Sudoeste 10 Sur 0 -- -- 83
2019-04-08 20:00:00 12.5 4 Sudeste 40 Oeste 0.4 -- -- 76
2019-04-08 19:00:00 16.6 10 Oeste 30 Noroeste 0 -- -- 57
2019-04-08 18:00:00 18.2 8 Norte 18 Noroeste 0 -- -- 50
2019-04-08 17:00:00 18.2 8 Noroeste 18 Oeste 0 -- -- 53
2019-04-08 16:00:00 17.7 8 Noroeste 20 Noroeste 0 -- -- 57
2019-04-08 15:00:00 16.7 6 Oeste 18 Oeste 0 -- -- 61
2019-04-08 14:00:00 15.1 6 Noroeste 13 Noroeste 0 -- -- 65
2019-04-08 13:00:00 13.9 4 Sudoeste 11 Oeste 0 -- -- 69
2019-04-08 12:00:00 11.6 2 Oeste 6 Oeste 0 -- -- 77
2019-04-08 11:00:00 9.5 3 Oeste 7 Oeste 0 -- -- 85
2019-04-08 10:00:00 8.1 3 Oeste 5 Oeste 0 -- -- 92
2019-04-08 09:00:00 6.9 0 Calma 4 Sudoeste 0 -- -- 93
2019-04-08 08:00:00 6.4 0 Calma 4 Sudeste 0.2 -- -- 93
2019-04-08 07:00:00 6.2 2 Sur 6 Nordeste 0.4 -- -- 92
2019-04-08 06:00:00 6.3 3 Nordeste 6 Nordeste 0.2 -- -- 87
2019-04-08 05:00:00 6.5 3 Noroeste 7 Norte 0 -- -- 85
2019-04-08 04:00:00 5.7 3 Norte 9 Norte 0 -- -- 85
2019-04-08 03:00:00 5.6 5 Norte 13 Oeste 0 -- -- 85
2019-04-08 02:00:00 6.7 0 Calma 4 Noroeste 0 -- -- 80
2019-04-08 01:00:00 7.8 3 Norte 6 Noroeste 0 -- -- 75
2019-04-08 00:00:00 8 4 Norte 7 Oeste 0 -- -- 74
2019-04-07 23:00:00 9 5 Oeste 10 Oeste 0 -- -- 70
2019-04-07 22:00:00 10.2 7 Oeste 14 Oeste 0 -- -- 62
2019-04-07 21:00:00 12 7 Oeste 24 Oeste 0 -- -- 54
2019-04-07 20:00:00 14.3 17 Oeste 35 Oeste 0 -- -- 44
2019-04-07 19:00:00 15.6 22 Oeste 41 Oeste 0 -- -- 43
2019-04-07 18:00:00 15.8 19 Oeste 37 Oeste 0 -- -- 45
2019-04-07 17:00:00 15.6 23 Oeste 39 Oeste 0 -- -- 45
2019-04-07 16:00:00 15.7 22 Oeste 45 Oeste 0 -- -- 47
2019-04-07 15:00:00 15.1 22 Oeste 44 Oeste 0 -- -- 48
2019-04-07 14:00:00 14.3 22 Oeste 41 Oeste 0 -- -- 52
2019-04-07 13:00:00 13 24 Oeste 49 Oeste 0 -- -- 54
2019-04-07 12:00:00 11.6 27 Oeste 45 Oeste 0 -- -- 61
2019-04-07 11:00:00 10.7 24 Oeste 43 Oeste 0 -- -- 62
2019-04-07 10:00:00 9.1 22 Oeste 39 Oeste 0 -- -- 75
2019-04-07 09:00:00 6.9 15 Oeste 26 Oeste 0 -- -- 88
2019-04-07 08:00:00 6 11 Oeste 24 Oeste 0 -- -- 90
2019-04-07 07:00:00 5.3 10 Oeste 18 Oeste 0 -- -- 93
2019-04-07 06:00:00 5.8 6 Oeste 10 Oeste 0 -- -- 92
2019-04-07 05:00:00 6.2 4 Oeste 8 Oeste 0 -- -- 92
2019-04-07 04:00:00 6.2 3 Norte 5 Norte 0 -- -- 92
2019-04-07 03:00:00 6.4 0 Calma 9 Norte 0 -- -- 91
2019-04-07 02:00:00 7.1 2 Noroeste 6 Noroeste 0 -- -- 90
2019-04-07 01:00:00 7.2 2 Sur 5 Nordeste 0 -- -- 87
2019-04-07 00:00:00 7.2 3 Nordeste 8 Este 0 -- -- 87
2019-04-06 23:00:00 7.2 5 Sudeste 10 Sudeste 0 -- -- 86
2019-04-06 22:00:00 6.8 6 Norte 9 Nordeste 0 -- -- 86
2019-04-06 21:00:00 7.6 5 Norte 28 Noroeste 0.2 -- -- 80
2019-04-06 20:00:00 9.5 13 Noroeste 29 Norte 0 -- -- 76
2019-04-06 19:00:00 12.1 7 Norte 24 Noroeste 0 -- -- 60
2019-04-06 18:00:00 14.5 8 Noroeste 19 Noroeste 0 -- -- 48
2019-04-06 17:00:00 14.9 10 Sudoeste 25 Sudoeste 0 -- -- 43
2019-04-06 16:00:00 13.4 8 Oeste 19 Sudoeste 0 -- -- 48
2019-04-06 15:00:00 13.9 14 Oeste 26 Oeste 0 -- -- 49
2019-04-06 14:00:00 12.4 5 Oeste 19 Oeste 0 -- -- 52
2019-04-06 13:00:00 11.5 9 Oeste 25 Oeste 0 -- -- 59
2019-04-06 12:00:00 10.5 13 Oeste 26 Oeste 0 -- -- 66
2019-04-06 11:00:00 8.8 12 Oeste 24 Sudoeste 0 -- -- 73
2019-04-06 10:00:00 7.5 6 Oeste 20 Sudoeste 0 -- -- 83
2019-04-06 09:00:00 6.4 9 Oeste 19 Oeste 0 -- -- 86
2019-04-06 08:00:00 6.3 10 Oeste 22 Oeste 0 -- -- 87
2019-04-06 07:00:00 6.2 8 Oeste 14 Oeste 0 -- -- 88
2019-04-06 06:00:00 6.1 3 Oeste 6 Oeste 0 -- -- 92
2019-04-06 05:00:00 6.1 4 Noroeste 12 Oeste 0 -- -- 92
2019-04-06 04:00:00 5.9 8 Oeste 17 Sudoeste 0 -- -- 92
2019-04-06 03:00:00 5.5 9 Oeste 31 Noroeste 0.2 -- -- 92
2019-04-06 02:00:00 5.8 17 Oeste 35 Oeste 1.4 -- -- 93
2019-04-06 01:00:00 6.3 19 Oeste 38 Sudoeste 1.2 -- -- 94
2019-04-06 00:00:00 7.8 10 Oeste 18 Oeste 0.4 -- -- 95
2019-04-05 23:00:00 8.1 0 Calma 4 Sudoeste 0.2 -- -- 94
2019-04-05 22:00:00 8.2 2 Sudoeste 12 Nordeste 0 -- -- 93
2019-04-05 21:00:00 8.3 3 Norte 12 Norte 0 -- -- 93
2019-04-05 20:00:00 8.3 9 Norte 14 Noroeste 0.4 -- -- 94
2019-04-05 19:00:00 8.4 7 Noroeste 18 Noroeste 1.2 -- -- 93
2019-04-05 18:00:00 9 12 Noroeste 28 Sudoeste 1.2 -- -- 91
2019-04-05 17:00:00 13.5 8 Nordeste 23 Este 0 -- -- 59
2019-04-05 16:00:00 14.7 11 Este 24 Este 0 -- -- 53
2019-04-05 15:00:00 14.4 9 Nordeste 23 Nordeste 0 -- -- 56
2019-04-05 14:00:00 14.1 14 Este 25 Este 0 -- -- 62
2019-04-05 13:00:00 12.3 13 Este 22 Este 0 -- -- 71
2019-04-05 12:00:00 11 12 Este 19 Este 0 -- -- 75
2019-04-05 11:00:00 7.8 4 Nordeste 13 Oeste 0.2 -- -- 90
2019-04-05 10:00:00 6.4 9 Oeste 15 Oeste 0 -- -- 90
2019-04-05 09:00:00 6.3 3 Sudeste 17 Este 0.4 -- -- 87
2019-04-05 08:00:00 7.3 6 Sur 24 Este 0.4 -- -- 79
2019-04-05 07:00:00 7.4 13 Este 24 Este 0 -- -- 74
2019-04-05 06:00:00 8.1 6 Este 27 Este 0 -- -- 59
2019-04-05 05:00:00 7.7 14 Este 29 Este 0 -- -- 60
2019-04-05 04:00:00 7.5 15 Este 29 Este 0 -- -- 63
2019-04-05 03:00:00 7.3 14 Este 26 Este 0 -- -- 65
2019-04-05 02:00:00 7.7 10 Este 23 Este 0 -- -- 61
2019-04-05 01:00:00 8 10 Este 21 Este 0 -- -- 53
2019-04-05 00:00:00 8.2 8 Este 17 Sudeste 0 -- -- 48
2019-04-04 23:00:00 7.8 3 Este 10 Sur 0 -- -- 54
2019-04-04 22:00:00 8.9 3 Este 10 Nordeste 0 -- -- 48
2019-04-04 21:00:00 10 6 Nordeste 10 Este 0 -- -- 45
2019-04-04 20:00:00 12.3 3 Nordeste 13 Oeste 0 -- -- 36
2019-04-04 19:00:00 13.9 5 Oeste 22 Oeste 0 -- -- 30
2019-04-04 18:00:00 14 10 Oeste 24 Oeste 0 -- -- 31
2019-04-04 17:00:00 14.3 12 Sudoeste 28 Oeste 0 -- -- 32
2019-04-04 16:00:00 13.5 16 Oeste 37 Oeste 0 -- -- 35
2019-04-04 15:00:00 12.7 21 Oeste 39 Oeste 0 -- -- 36
2019-04-04 14:00:00 12.1 22 Oeste 41 Oeste 0 -- -- 37
2019-04-04 13:00:00 10.9 23 Oeste 39 Noroeste 0 -- -- 41
2019-04-04 12:00:00 9.4 23 Oeste 41 Oeste 0 -- -- 48
2019-04-04 11:00:00 8.3 21 Oeste 40 Oeste 0 -- -- 52
2019-04-04 10:00:00 6.9 18 Oeste 32 Oeste 0 -- -- 57
2019-04-04 09:00:00 4.9 16 Oeste 35 Oeste 0 -- -- 64
2019-04-04 08:00:00 3.4 19 Oeste 38 Oeste 0 -- -- 69
2019-04-04 07:00:00 3.1 19 Oeste 34 Oeste 0 -- -- 72
2019-04-04 06:00:00 2.4 13 Oeste 27 Oeste 0 -- -- 75
2019-04-04 05:00:00 3 10 Oeste 33 Oeste 0 -- -- 70
2019-04-04 04:00:00 3.6 17 Oeste 32 Oeste 0 -- -- 67
2019-04-04 03:00:00 4.1 17 Oeste 33 Oeste 0 -- -- 66
2019-04-04 02:00:00 4.5 19 Oeste 33 Oeste 0 -- -- 66
2019-04-04 01:00:00 4.8 19 Oeste 31 Oeste 0 -- -- 64
2019-04-04 00:00:00 5.5 17 Oeste 30 Oeste 0 -- -- 75
2019-04-03 23:00:00 6.7 14 Oeste 35 Oeste 0 -- -- 65
2019-04-03 22:00:00 7.3 19 Oeste 35 Oeste 0 -- -- 70
2019-04-03 21:00:00 8.4 16 Oeste 37 Oeste 0 -- -- 61
2019-04-03 20:00:00 8.8 25 Oeste 54 Oeste 0 -- -- 57
2019-04-03 19:00:00 11 18 Oeste 38 Oeste 0 -- -- 55
2019-04-03 18:00:00 11.7 21 Oeste 37 Oeste 0 -- -- 53
2019-04-03 17:00:00 11.3 15 Oeste 33 Oeste 0 -- -- 53
2019-04-03 16:00:00 10.8 18 Oeste 37 Oeste 0 -- -- 58
2019-04-03 15:00:00 10.5 19 Oeste 35 Oeste 0 -- -- 58
2019-04-03 14:00:00 11.6 20 Oeste 32 Oeste 0 -- -- 60
2019-04-03 13:00:00 12.5 18 Oeste 29 Oeste 0 -- -- 58
2019-04-03 12:00:00 14 15 Oeste 30 Oeste 0 -- -- 58
2019-04-03 11:00:00 12.1 4 Oeste 15 Oeste 0 -- -- 69
2019-04-03 10:00:00 10.4 8 Oeste 14 Oeste 0 -- -- 73
2019-04-03 09:00:00 8.1 3 Sudoeste 11 Oeste 0 -- -- 85
2019-04-03 08:00:00 6.9 5 Oeste 8 Oeste 0 -- -- 87
2019-04-03 07:00:00 7.5 2 Sur 8 Oeste 0 -- -- 83
2019-04-03 06:00:00 8.4 4 Oeste 13 Oeste 0 -- -- 80
2019-04-03 05:00:00 8.8 8 Noroeste 16 Noroeste 0 -- -- 77
2019-04-03 04:00:00 9.6 5 Norte 10 Noroeste 0 -- -- 77
2019-04-03 03:00:00 10.8 4 Noroeste 12 Noroeste 0 -- -- 74
2019-04-03 02:00:00 11.9 2 Noroeste 11 Noroeste 0 -- -- 73
2019-04-03 01:00:00 13.2 7 Oeste 21 Oeste 0 -- -- 72
2019-04-03 00:00:00 13.4 12 Oeste 20 Oeste 0 -- -- 69
2019-04-02 23:00:00 13.5 7 Oeste 18 Sudoeste 0 -- -- 67
2019-04-02 22:00:00 14.5 8 Oeste 18 Oeste 0 -- -- 62
2019-04-02 21:00:00 15 8 Oeste 20 Oeste 0 -- -- 53
2019-04-02 20:00:00 17.8 10 Oeste 28 Oeste 0 -- -- 43
2019-04-02 19:00:00 19.9 15 Oeste 34 Oeste 0 -- -- 36
2019-04-02 18:00:00 19.9 18 Oeste 36 Sudoeste 0 -- -- 35
2019-04-02 17:00:00 20 18 Oeste 34 Sudoeste 0 -- -- 39
2019-04-02 16:00:00 19.9 15 Oeste 31 Oeste 0 -- -- 40
2019-04-02 15:00:00 19.1 14 Oeste 28 Oeste 0 -- -- 51
2019-04-02 14:00:00 18.5 16 Oeste 32 Oeste 0 -- -- 51
2019-04-02 13:00:00 17.7 13 Oeste 27 Oeste 0 -- -- 62
2019-04-02 12:00:00 15.6 9 Oeste 23 Oeste 0 -- -- 73
2019-04-02 11:00:00 13.4 10 Oeste 18 Oeste 0 -- -- 84
2019-04-02 10:00:00 10 8 Oeste 13 Noroeste 0 -- -- 97
2019-04-02 09:00:00 8.9 2 Noroeste 8 Noroeste 0 -- -- 97
2019-04-02 08:00:00 8.7 3 Noroeste 5 Noroeste 0 -- -- 96
2019-04-02 07:00:00 9.2 4 Noroeste 7 Noroeste 0 -- -- 96
2019-04-02 06:00:00 9.5 5 Oeste 7 Oeste 0 -- -- 95
2019-04-02 05:00:00 10.1 0 Calma 4 Oeste 0 -- -- 94
2019-04-02 04:00:00 10.3 4 Norte 7 Norte 0 -- -- 93
2019-04-02 03:00:00 10.5 7 Norte 10 Noroeste 0.2 -- -- 95
2019-04-02 02:00:00 10.1 2 Oeste 8 Oeste 0 -- -- 93
2019-04-02 01:00:00 9.9 4 Norte 6 Oeste 0 -- -- 92
2019-04-02 00:00:00 9.9 2 Oeste 5 Oeste 0 -- -- 89
2019-04-01 23:00:00 11.2 5 Sudoeste 11 Sudoeste 0 -- -- 85
2019-04-01 22:00:00 12.6 2 Norte 5 Nordeste 0 -- -- 80
2019-04-01 21:00:00 13.4 4 Nordeste 6 Nordeste 0 -- -- 76
2019-04-01 20:00:00 15 3 Nordeste 4 Nordeste 0 -- -- 71
2019-04-01 19:00:00 14.7 3 Oeste 7 Oeste 0 -- -- 72
2019-04-01 18:00:00 15.4 3 Sudoeste 13 Sur 0 -- -- 69
2019-04-01 17:00:00 15.4 4 Sur 11 Sur 0 -- -- 71
2019-04-01 16:00:00 14.1 5 Sur 9 Sudeste 0 -- -- 74
2019-04-01 15:00:00 12.6 3 Oeste 9 Sur 0 -- -- 75
2019-04-01 14:00:00 12.4 3 Sudeste 8 Este 0 -- -- 75
2019-04-01 13:00:00 11.1 3 Este 10 Este 0 -- -- 76
2019-04-01 12:00:00 10.5 5 Nordeste 7 Nordeste 0 -- -- 76
2019-04-01 11:00:00 10.2 4 Norte 6 Noroeste 0.2 -- -- 87
2019-04-01 10:00:00 9.2 3 Noroeste 10 Noroeste 0.6 -- -- 97
2019-04-01 09:00:00 8.5 5 Noroeste 8 Oeste 0.2 -- -- 96
2019-04-01 08:00:00 8.4 4 Oeste 9 Oeste 0.2 -- -- 96
2019-04-01 07:00:00 8.3 3 Oeste 8 Oeste 0.2 -- -- 95
2019-04-01 06:00:00 8.3 4 Oeste 9 Oeste 0 -- -- 94
2019-04-01 05:00:00 8.5 4 Oeste 12 Oeste 0.2 -- -- 92
2019-04-01 04:00:00 8.9 6 Noroeste 14 Noroeste 0 -- -- 90
2019-04-01 03:00:00 9.1 6 Noroeste 13 Oeste 0.2 -- -- 91
2019-04-01 02:00:00 9.2 6 Oeste 10 Oeste 0 -- -- 91
2019-04-01 01:00:00 9.5 5 Oeste 12 Oeste 0.2 -- -- 87
2019-04-01 00:00:00 9.9 7 Oeste 11 Oeste 0 -- -- 82
2019-03-31 23:00:00 11 2 Oeste 5 Norte 0 -- -- 73
2019-03-31 22:00:00 11.7 4 Norte 6 Norte 0 -- -- 67
2019-03-31 21:00:00 12.1 2 Noroeste 5 Norte 0 -- -- 64
2019-03-31 20:00:00 12.8 4 Norte 5 Norte 0 -- -- 60
2019-03-31 19:00:00 13.2 3 Este 8 Sudeste 0 -- -- 57
2019-03-31 18:00:00 13.5 4 Este 9 Sudeste 0 -- -- 56
2019-03-31 17:00:00 13.6 3 Este 12 Este 0 -- -- 57
2019-03-31 16:00:00 13.5 5 Este 13 Este 0 -- -- 56
2019-03-31 15:00:00 13.4 4 Este 16 Sudeste 0 -- -- 54
2019-03-31 14:00:00 13.1 10 Sudeste 18 Sudeste 0 -- -- 64
2019-03-31 13:00:00 11.7 4 Sudeste 12 Sudeste 0 -- -- 72
2019-03-31 12:00:00 9.4 2 Oeste 7 Sudoeste 0 -- -- 81
2019-03-31 11:00:00 8.4 3 Oeste 8 Noroeste 0 -- -- 83
2019-03-31 10:00:00 6.7 5 Norte 8 Noroeste 0 -- -- 87
2019-03-31 09:00:00 4.5 3 Oeste 6 Noroeste 0 -- -- 92
2019-03-31 08:00:00 3.1 2 Noroeste 6 Noroeste 0 -- -- 91
2019-03-31 07:00:00 3.6 0 Calma 6 Noroeste 0 -- -- 91
2019-03-31 06:00:00 4.3 2 Noroeste 8 Norte 0 -- -- 91
2019-03-31 05:00:00 5.3 3 Noroeste 6 Noroeste 0 -- -- 90
2019-03-31 03:00:00 6.9 3 Este 10 Este 0 -- -- 85
2019-03-31 01:00:00 8 6 Nordeste 14 Este 0 -- -- 83
2019-03-31 00:00:00 8.8 9 Este 21 Sudeste 0 -- -- 81
2019-03-30 23:00:00 9.3 9 Este 19 Sudeste 0 -- -- 76
2019-03-30 22:00:00 9.9 4 Este 16 Este 0 -- -- 70
2019-03-30 21:00:00 11.2 8 Sudeste 13 Este 0 -- -- 64
2019-03-30 20:00:00 13.1 5 Este 9 Este 0 -- -- 50
2019-03-30 19:00:00 16 6 Nordeste 15 Este 0 -- -- 40
2019-03-30 18:00:00 17.9 10 Este 19 Este 0 -- -- 34
2019-03-30 17:00:00 17.7 11 Este 21 Este 0 -- -- 35
2019-03-30 16:00:00 18.2 8 Este 24 Norte 0 -- -- 35
2019-03-30 15:00:00 18.3 10 Sudeste 24 Sudeste 0 -- -- 36
2019-03-30 14:00:00 17.1 12 Este 23 Este 0 -- -- 40
2019-03-30 13:00:00 16.6 9 Sudeste 21 Nordeste 0 -- -- 42
2019-03-30 12:00:00 14.9 10 Este 20 Este 0 -- -- 52
2019-03-30 11:00:00 13.4 10 Este 19 Este 0 -- -- 59
2019-03-30 10:00:00 11.5 8 Este 13 Este 0 -- -- 64
2019-03-30 09:00:00 7.8 3 Este 6 Sudeste 0 -- -- 71
2019-03-30 08:00:00 3.8 2 Oeste 5 Oeste 0 -- -- 82
2019-03-30 07:00:00 2.8 3 Norte 5 Norte 0 -- -- 84
2019-03-30 06:00:00 3.1 2 Noroeste 10 Noroeste 0 -- -- 83
2019-03-30 05:00:00 4 5 Oeste 8 Sudoeste 0 -- -- 82
2019-03-30 04:00:00 5.3 2 Sudoeste 6 Sudoeste 0 -- -- 82
2019-03-30 03:00:00 6.2 4 Nordeste 10 Este 0 -- -- 71
2019-03-30 02:00:00 7.4 6 Este 13 Este 0 -- -- 70
2019-03-30 01:00:00 8.3 6 Este 17 Este 0 -- -- 66
2019-03-30 00:00:00 8.8 9 Este 21 Este 0 -- -- 61
2019-03-29 23:00:00 9.6 12 Este 20 Este 0 -- -- 55
2019-03-29 22:00:00 9.8 7 Este 13 Este 0 -- -- 54
2019-03-29 21:00:00 11.5 8 Este 20 Sudeste 0 -- -- 52
2019-03-29 20:00:00 13.5 11 Sudeste 24 Sudeste 0 -- -- 47
2019-03-29 19:00:00 15.9 14 Sudeste 27 Este 0 -- -- 41
2019-03-29 18:00:00 18 16 Sudeste 31 Sudeste 0 -- -- 37
2019-03-29 17:00:00 18.4 16 Sudeste 31 Este 0 -- -- 36
2019-03-29 16:00:00 19.1 14 Este 27 Nordeste 0 -- -- 34
2019-03-29 15:00:00 18.9 14 Este 26 Este 0 -- -- 31
2019-03-29 14:00:00 19 13 Este 30 Este 0 -- -- 31
2019-03-29 13:00:00 17.6 12 Este 24 Este 0 -- -- 34
2019-03-29 12:00:00 16.3 15 Este 23 Sudeste 0 -- -- 38
2019-03-29 11:00:00 14.3 13 Sudeste 22 Sudeste 0 -- -- 46
2019-03-29 10:00:00 11.8 9 Sudeste 14 Sudeste 0 -- -- 53
2019-03-29 09:00:00 7.4 2 Norte 4 Noroeste 0 -- -- 67
2019-03-29 08:00:00 3.9 3 Noroeste 5 Noroeste 0 -- -- 78
2019-03-29 07:00:00 3.1 0 Calma 5 Noroeste 0 -- -- 78
2019-03-29 06:00:00 3.4 3 Noroeste 6 Oeste 0 -- -- 79
2019-03-29 05:00:00 3.9 4 Oeste 8 Oeste 0 -- -- 76
2019-03-29 04:00:00 5 2 Noroeste 6 Oeste 0 -- -- 74
2019-03-29 03:00:00 6.7 0 Calma 8 Sudeste 0 -- -- 66
2019-03-29 02:00:00 7.7 4 Sudeste 16 Este 0 -- -- 61
2019-03-29 01:00:00 8.9 9 Este 23 Este 0 -- -- 55
2019-03-29 00:00:00 9.9 13 Este 26 Este 0 -- -- 49
2019-03-28 23:00:00 10.4 11 Este 22 Este 0 -- -- 50
2019-03-28 22:00:00 11.1 5 Este 14 Sudeste 0 -- -- 50
2019-03-28 21:00:00 12.1 5 Este 10 Este 0 -- -- 52
2019-03-28 20:00:00 14.3 5 Este 9 Este 0 -- -- 47
2019-03-28 19:00:00 17 6 Este 9 Nordeste 0 -- -- 41
2019-03-28 18:00:00 18.9 5 Nordeste 10 Este 0 -- -- 38
2019-03-28 17:00:00 18.2 4 Sudoeste 9 Sudoeste 0 -- -- 39
2019-03-28 16:00:00 18.3 3 Norte 12 Oeste 0 -- -- 39
2019-03-28 15:00:00 17.7 4 Oeste 12 Noroeste 0 -- -- 39
2019-03-28 14:00:00 16.6 5 Noroeste 16 Sudeste 0 -- -- 40
2019-03-28 13:00:00 15.5 5 Este 14 Sudeste 0 -- -- 44
2019-03-28 12:00:00 14.3 5 Este 13 Este 0 -- -- 50
2019-03-28 11:00:00 12.6 6 Sudeste 12 Sudeste 0 -- -- 56
2019-03-28 10:00:00 10.2 5 Este 10 Sudeste 0 -- -- 63
2019-03-28 09:00:00 6.2 2 Norte 12 Noroeste 0 -- -- 77
2019-03-28 08:00:00 3.6 5 Noroeste 9 Noroeste 0 -- -- 83
2019-03-28 07:00:00 2.3 4 Noroeste 9 Oeste 0 -- -- 86
2019-03-28 06:00:00 2.5 5 Noroeste 9 Oeste 0 -- -- 84
2019-03-28 05:00:00 3.5 5 Noroeste 9 Oeste 0 -- -- 79
2019-03-28 04:00:00 4.4 5 Oeste 9 Oeste 0 -- -- 75
2019-03-28 03:00:00 5.8 4 Oeste 7 Oeste 0 -- -- 69
2019-03-28 02:00:00 7.4 0 Calma 10 Oeste 0 -- -- 63
2019-03-28 01:00:00 8.6 4 Sur 9 Nordeste 0 -- -- 59
2019-03-28 00:00:00 9.4 2 Oeste 8 Noroeste 0 -- -- 58
2019-03-27 23:00:00 10.1 2 Noroeste 8 Sudeste 0 -- -- 55
2019-03-27 22:00:00 11.5 4 Sudeste 8 Sudeste 0 -- -- 51
2019-03-27 21:00:00 13.5 4 Este 9 Sudeste 0 -- -- 46
2019-03-27 20:00:00 15.7 7 Sudeste 10 Sudeste 0 -- -- 35
2019-03-27 19:00:00 19.4 4 Sur 6 Sudoeste 0 -- -- 27
2019-03-27 18:00:00 20.7 4 Sudoeste 10 Sudoeste 0 -- -- 24
2019-03-27 17:00:00 19.3 6 Oeste 16 Oeste 0 -- -- 26
2019-03-27 16:00:00 20.1 9 Sudoeste 16 Oeste 0 -- -- 27
2019-03-27 15:00:00 19.3 5 Sudoeste 13 Oeste 0 -- -- 38
2019-03-27 14:00:00 17.3 5 Noroeste 15 Oeste 0 -- -- 41
2019-03-27 13:00:00 15.7 5 Sudoeste 13 Oeste 0 -- -- 49
2019-03-27 12:00:00 13.3 6 Oeste 12 Oeste 0 -- -- 56
2019-03-27 11:00:00 11.5 2 Oeste 10 Sudoeste 0 -- -- 60
2019-03-27 10:00:00 8.7 4 Oeste 10 Oeste 0 -- -- 68
2019-03-27 09:00:00 5.3 4 Noroeste 8 Oeste 0 -- -- 81
2019-03-27 08:00:00 3.6 4 Norte 10 Noroeste 0 -- -- 88
2019-03-27 07:00:00 1.9 4 Noroeste 10 Oeste 0 -- -- 91
2019-03-27 06:00:00 1.8 6 Noroeste 11 Oeste 0 -- -- 90
2019-03-27 05:00:00 2.7 4 Oeste 8 Oeste 0 -- -- 90
2019-03-27 04:00:00 4.2 3 Sudoeste 6 Sudoeste 0 -- -- 86
2019-03-27 03:00:00 5.5 2 Sudoeste 8 Norte 0 -- -- 82
2019-03-27 02:00:00 6.7 5 Nordeste 17 Este 0 -- -- 77
2019-03-27 01:00:00 7.8 8 Este 23 Este 0 -- -- 73
2019-03-27 00:00:00 8.3 12 Este 27 Este 0 -- -- 72
2019-03-26 23:00:00 8.9 14 Este 27 Este 0 -- -- 69
2019-03-26 22:00:00 10.1 9 Este 15 Este 0 -- -- 60
2019-03-26 21:00:00 12.5 4 Este 8 Sudoeste 0 -- -- 38
2019-03-26 20:00:00 15.6 4 Sudoeste 8 Sudoeste 0 -- -- 31
2019-03-26 19:00:00 18.6 4 Sudoeste 14 Sudoeste 0 -- -- 27
2019-03-26 18:00:00 20.9 7 Oeste 17 Oeste 0 -- -- 21
2019-03-26 17:00:00 20.1 9 Oeste 18 Oeste 0 -- -- 20
2019-03-26 16:00:00 20.4 10 Oeste 27 Oeste 0 -- -- 21
2019-03-26 15:00:00 19.4 12 Oeste 24 Oeste 0 -- -- 25
2019-03-26 14:00:00 18.1 10 Oeste 25 Oeste 0 -- -- 28
2019-03-26 13:00:00 16.5 13 Noroeste 27 Oeste 0 -- -- 35
2019-03-26 12:00:00 14.7 10 Oeste 21 Oeste 0 -- -- 44
2019-03-26 11:00:00 12 11 Oeste 22 Oeste 0 -- -- 54
2019-03-26 10:00:00 8.7 8 Noroeste 19 Oeste 0 -- -- 65
2019-03-26 09:00:00 6.4 6 Oeste 13 Oeste 0 -- -- 73
2019-03-26 08:00:00 4.3 3 Oeste 6 Sudoeste 0 -- -- 81
2019-03-26 07:00:00 3.4 4 Nordeste 8 Oeste 0 -- -- 81
2019-03-26 06:00:00 4.8 4 Noroeste 11 Noroeste 0 -- -- 80
2019-03-26 05:00:00 5.6 5 Noroeste 13 Noroeste 0 -- -- 79
2019-03-26 04:00:00 5.6 9 Noroeste 14 Noroeste 0 -- -- 79
2019-03-26 03:00:00 5.8 5 Noroeste 15 Noroeste 0 -- -- 77
2019-03-26 02:00:00 6.3 8 Noroeste 17 Oeste 0 -- -- 74
2019-03-26 01:00:00 7.3 7 Noroeste 15 Noroeste 0 -- -- 71
2019-03-26 00:00:00 7.8 11 Noroeste 16 Oeste 0 -- -- 69
2019-03-25 23:00:00 8.5 6 Noroeste 12 Oeste 0 -- -- 65
2019-03-25 22:00:00 9.9 5 Oeste 11 Oeste 0 -- -- 58
2019-03-25 21:00:00 11.7 7 Oeste 21 Oeste 0 -- -- 50
2019-03-25 20:00:00 13.6 13 Oeste 23 Oeste 0 -- -- 44
2019-03-25 19:00:00 16.4 12 Oeste 32 Oeste 0 -- -- 37
2019-03-25 18:00:00 18.9 14 Oeste 34 Oeste 0 -- -- 34
2019-03-25 17:00:00 19.3 19 Oeste 32 Oeste 0 -- -- 32
2019-03-25 16:00:00 20 18 Oeste 37 Oeste 0 -- -- 34
2019-03-25 15:00:00 19.6 18 Oeste 35 Noroeste 0 -- -- 34
2019-03-25 14:00:00 19.3 21 Oeste 37 Oeste 0 -- -- 35
2019-03-25 13:00:00 18.9 19 Oeste 37 Oeste 0 -- -- 37
2019-03-25 12:00:00 17.5 19 Oeste 31 Oeste 0 -- -- 44
2019-03-25 11:00:00 15.8 15 Oeste 30 Oeste 0 -- -- 50
2019-03-25 10:00:00 13.2 11 Oeste 19 Oeste 0 -- -- 60
2019-03-25 09:00:00 9.6 11 Noroeste 19 Noroeste 0 -- -- 72
2019-03-25 08:00:00 6.9 6 Noroeste 11 Oeste 0 -- -- 79
2019-03-25 07:00:00 4.9 4 Oeste 9 Oeste 0 -- -- 83
2019-03-25 06:00:00 5.2 4 Noroeste 17 Noroeste 0 -- -- 83
2019-03-25 05:00:00 5.8 7 Oeste 13 Oeste 0 -- -- 81
2019-03-25 04:00:00 6.5 6 Noroeste 14 Noroeste 0 -- -- 80
2019-03-25 03:00:00 7.9 7 Oeste 11 Oeste 0 -- -- 72
2019-03-25 02:00:00 7.7 4 Noroeste 9 Noroeste 0 -- -- 71
2019-03-25 01:00:00 9.2 4 Norte 10 Norte 0 -- -- 68
2019-03-25 00:00:00 9.8 6 Noroeste 10 Noroeste 0 -- -- 65